createdAt,value
2019-04-29T00:02:25.315Z,65.50
2019-04-29T00:04:54.761Z,65.30
2019-04-29T00:07:24.124Z,65.70
2019-04-29T00:09:53.508Z,65.30
2019-04-29T00:12:23.015Z,65.60
2019-04-29T00:14:56.779Z,65.80
2019-04-29T00:17:37.153Z,65.60
2019-04-29T00:20:16.213Z,65.90
2019-04-29T00:22:45.581Z,65.80
2019-04-29T00:25:14.945Z,65.80
2019-04-29T00:27:44.407Z,65.80
2019-04-29T00:30:15.656Z,66.30
2019-04-29T00:32:45.390Z,66.30
2019-04-29T00:35:15.099Z,66.30
2019-04-29T00:38:00.946Z,66.30
2019-04-29T00:40:37.817Z,66.30
2019-04-29T00:43:08.794Z,66.60
2019-04-29T00:45:38.178Z,66.50
2019-04-29T00:48:07.562Z,66.90
2019-04-29T00:50:37.182Z,66.90
2019-04-29T00:53:06.551Z,66.90
2019-04-29T00:55:36.230Z,67.00
2019-04-29T00:58:05.668Z,67.30
2019-04-29T01:00:37.056Z,67.30
2019-04-29T01:03:07.178Z,67.60
2019-04-29T01:05:37.386Z,67.70
2019-04-29T02:10:03.642Z,72.90
2019-04-29T02:12:32.987Z,77.30
2019-04-29T02:15:02.361Z,76.40
2019-04-29T02:17:31.739Z,76.30
2019-04-29T02:20:01.118Z,76.00
2019-04-29T02:22:44.235Z,76.00
2019-04-29T02:25:15.241Z,75.40
2019-04-29T02:27:44.654Z,75.40
2019-04-29T02:30:21.645Z,75.70
2019-04-29T02:32:51.013Z,75.70
2019-04-29T02:35:20.393Z,76.20
2019-04-29T02:37:50.144Z,76.30
2019-04-29T02:40:29.991Z,76.40
2019-04-29T02:43:01.007Z,76.50
2019-04-29T02:45:32.048Z,76.30
2019-04-29T02:48:01.460Z,76.50
2019-04-29T02:50:31.402Z,76.40
2019-04-29T02:53:00.772Z,76.60
2019-04-29T02:55:32.197Z,77.30
2019-04-29T02:58:03.169Z,76.80
2019-04-29T03:00:43.207Z,77.50
2019-04-29T03:03:14.221Z,77.30
2019-04-29T03:08:20.380Z,77.60
2019-04-29T03:10:50.076Z,77.40
2019-04-29T03:13:19.881Z,77.90
2019-04-29T03:15:50.420Z,77.90
2019-04-29T03:18:21.438Z,78.30
2019-04-29T03:20:55.262Z,77.80
2019-04-29T03:23:26.667Z,78.20
2019-04-29T03:25:56.088Z,78.10
2019-04-29T03:28:25.467Z,79.20
2019-04-29T03:30:54.853Z,79.00
2019-04-29T03:33:24.234Z,79.10
2019-04-29T03:35:53.684Z,79.40
2019-04-29T03:38:23.073Z,79.40
2019-04-29T03:40:52.459Z,79.30
2019-04-29T03:43:21.830Z,79.80
2019-04-29T03:45:51.567Z,79.80
2019-04-29T03:48:20.949Z,79.80
2019-04-29T03:50:50.347Z,79.80
2019-04-29T03:53:20.198Z,79.80
2019-04-29T03:55:51.217Z,80.30
2019-04-29T03:58:20.597Z,80.00
2019-04-29T04:00:51.619Z,80.30
2019-04-29T04:03:22.642Z,80.60
2019-04-29T04:05:53.663Z,80.40
2019-04-29T04:08:25.420Z,80.30
2019-04-29T04:10:55.254Z,80.60
2019-04-29T04:13:24.623Z,80.80
2019-04-29T04:15:54.016Z,80.90
2019-04-29T04:18:25.025Z,80.80
2019-04-29T04:20:54.397Z,81.30
2019-04-29T04:23:23.785Z,80.30
2019-04-29T04:25:53.161Z,81.50
2019-04-29T04:28:22.544Z,81.90
2019-04-29T04:30:52.501Z,81.70
2019-04-29T04:33:21.879Z,81.60
2019-04-29T04:35:51.252Z,81.90
2019-04-29T04:38:20.639Z,81.80
2019-04-29T04:40:54.500Z,82.20
2019-04-29T04:43:23.878Z,83.00
2019-04-29T04:45:53.581Z,82.40
2019-04-29T04:48:22.954Z,82.60
2019-04-29T04:50:52.331Z,82.70
2019-04-29T04:53:22.091Z,83.10
2019-04-29T04:55:53.215Z,83.10
2019-04-29T04:58:22.686Z,83.00
2019-04-29T05:00:52.085Z,83.00
2019-04-29T05:03:21.464Z,83.10
2019-04-29T05:05:50.838Z,82.20
2019-04-29T05:08:20.599Z,83.20
2019-04-29T05:10:49.974Z,83.20
2019-04-29T05:13:27.885Z,83.20
2019-04-29T05:15:50.702Z,83.20
2019-04-29T05:18:20.080Z,83.50
2019-04-29T05:20:49.481Z,83.40
2019-04-29T05:23:18.842Z,83.60
2019-04-29T05:25:48.224Z,83.30
2019-04-29T05:28:17.667Z,83.40
2019-04-29T05:30:47.694Z,83.80
2019-04-29T05:33:17.067Z,83.40
2019-04-29T05:35:56.779Z,83.50
2019-04-29T05:38:32.145Z,83.80
2019-04-29T05:41:01.545Z,84.00
2019-04-29T05:43:41.271Z,84.00
2019-04-29T05:46:12.686Z,84.10
2019-04-29T05:48:42.192Z,83.60
2019-04-29T05:51:28.581Z,83.90
2019-04-29T05:53:59.632Z,84.20
2019-04-29T05:56:29.040Z,84.60
2019-04-29T05:58:58.510Z,84.50
2019-04-29T06:01:29.467Z,84.60
2019-04-29T06:03:58.849Z,85.00
2019-04-29T06:09:11.469Z,85.30
2019-04-29T06:11:40.434Z,85.00
2019-04-29T06:14:10.408Z,85.50
2019-04-29T06:16:39.885Z,85.40
2019-04-29T06:19:09.263Z,85.40
2019-04-29T06:21:38.665Z,85.40
2019-04-29T06:24:08.068Z,85.70
2019-04-29T06:26:37.452Z,85.90
2019-04-29T06:29:07.106Z,86.00
2019-04-29T06:31:36.683Z,86.90
2019-04-29T06:34:06.567Z,87.00
2019-04-29T06:36:36.140Z,87.50
2019-04-29T06:39:07.689Z,87.20
2019-04-29T06:41:40.657Z,87.50
2019-04-29T06:44:15.853Z,87.60
2019-04-29T06:46:39.844Z,87.80
2019-04-29T06:49:10.805Z,87.50
2019-04-29T06:51:40.467Z,87.50
2019-04-29T06:54:09.872Z,87.70
2019-04-29T06:56:39.251Z,87.60
2019-04-29T06:59:12.256Z,87.80
2019-04-29T07:01:40.247Z,87.40
2019-04-29T07:04:09.627Z,87.60
2019-04-29T07:06:38.999Z,87.50
2019-04-29T07:09:08.453Z,88.10
2019-04-29T07:11:38.468Z,87.70
2019-04-29T07:14:08.191Z,87.90
2019-04-29T07:16:37.693Z,88.00
2019-04-29T07:19:07.060Z,88.10
2019-04-29T07:21:36.439Z,87.70
2019-04-29T07:24:05.963Z,87.80
2019-04-29T07:26:35.345Z,87.90
2019-04-29T07:29:04.788Z,87.90
2019-04-29T07:31:35.163Z,87.90
2019-04-29T07:34:04.744Z,87.80
2019-04-29T07:36:34.135Z,88.00
2019-04-29T07:39:04.954Z,87.50
2019-04-29T07:41:34.340Z,87.30
2019-04-29T07:44:03.727Z,87.50
2019-04-29T07:46:55.205Z,87.40
2019-04-29T07:49:06.136Z,87.20
2019-04-29T07:51:39.563Z,87.10
2019-04-29T07:54:11.167Z,86.90
2019-04-29T07:56:41.871Z,86.60
2019-04-29T07:59:11.186Z,86.60
2019-04-29T08:01:40.667Z,86.30
2019-04-29T08:04:10.048Z,86.20
2019-04-29T08:09:15.701Z,86.30
2019-04-29T08:14:14.608Z,85.60
2019-04-29T08:16:44.763Z,85.40
2019-04-29T08:19:14.492Z,85.90
2019-04-29T08:21:45.500Z,85.60
2019-04-29T08:24:15.814Z,85.60
2019-04-29T08:26:47.720Z,85.40
2019-04-29T08:29:16.456Z,85.60
2019-04-29T08:31:46.169Z,85.80
2019-04-29T08:34:18.813Z,85.40
2019-04-29T08:36:46.592Z,85.00
2019-04-29T08:39:16.011Z,84.50
2019-04-29T08:41:45.388Z,84.60
2019-04-29T08:44:22.309Z,85.10
2019-04-29T08:46:53.882Z,84.60
2019-04-29T08:49:23.253Z,84.40
2019-04-29T08:51:52.631Z,84.00
2019-04-29T08:54:22.061Z,83.90
2019-04-29T08:57:02.198Z,84.10
2019-04-29T08:59:24.542Z,84.20
2019-04-29T09:01:54.171Z,83.50
2019-04-29T09:04:23.583Z,83.10
2019-04-29T09:06:52.962Z,82.80
2019-04-29T09:09:29.199Z,82.50
2019-04-29T09:11:53.461Z,82.40
2019-04-29T09:14:22.847Z,82.10
2019-04-29T09:16:52.248Z,81.30
2019-04-29T09:19:21.628Z,81.30
2019-04-29T09:21:52.880Z,81.20
2019-04-29T09:24:22.915Z,80.70
2019-04-29T09:27:05.051Z,80.90
2019-04-29T09:29:34.568Z,80.50
2019-04-29T09:32:04.652Z,80.30
2019-04-29T09:34:34.032Z,80.50
2019-04-29T09:37:03.569Z,80.10
2019-04-29T09:39:42.896Z,79.50
2019-04-29T09:42:19.998Z,79.00
2019-04-29T09:44:59.605Z,78.80
2019-04-29T09:47:29.772Z,78.60
2019-04-29T09:49:59.172Z,78.90
2019-04-29T09:52:28.564Z,78.50
2019-04-29T09:54:59.494Z,78.60
2019-04-29T09:57:29.052Z,78.40
2019-04-29T10:00:04.636Z,78.40
2019-04-29T10:02:38.637Z,78.30
2019-04-29T10:05:22.000Z,78.50
2019-04-29T10:07:51.431Z,78.40
2019-04-29T10:10:20.866Z,78.10
2019-04-29T10:12:50.241Z,78.10
2019-04-29T10:15:21.277Z,78.20
2019-04-29T10:18:00.811Z,77.90
2019-04-29T10:20:43.584Z,78.00
2019-04-29T10:23:13.240Z,77.90
2019-04-29T10:25:42.868Z,77.80
2019-04-29T10:28:12.260Z,77.70
2019-04-29T10:30:42.147Z,77.90
2019-04-29T10:33:12.943Z,77.80
2019-04-29T10:35:45.233Z,77.90
2019-04-29T10:38:14.388Z,77.90
2019-04-29T10:41:05.935Z,78.00
2019-04-29T10:43:55.662Z,77.90
2019-04-29T10:46:45.022Z,78.10
2019-04-29T10:49:18.733Z,78.10
2019-04-29T10:51:48.118Z,78.00
2019-04-29T10:54:17.516Z,78.00
2019-04-29T10:56:47.393Z,78.10
2019-04-29T10:59:16.769Z,77.80
2019-04-29T11:02:09.352Z,78.00
2019-04-29T11:04:36.120Z,77.80
2019-04-29T11:10:01.453Z,78.00
2019-04-29T11:12:30.904Z,78.10
2019-04-29T11:15:01.725Z,77.80
2019-04-29T11:17:31.550Z,77.70
2019-04-29T11:20:01.072Z,77.60
2019-04-29T11:22:33.920Z,77.40
2019-04-29T11:25:09.026Z,77.30
2019-04-29T11:27:48.937Z,77.40
2019-04-29T11:30:22.678Z,77.20
2019-04-29T11:33:09.699Z,77.70
2019-04-29T11:35:46.754Z,76.90
2019-04-29T11:38:17.247Z,76.60
2019-04-29T11:40:48.814Z,76.40
2019-04-29T11:43:19.177Z,76.10
2019-04-29T11:45:49.089Z,76.00
2019-04-29T11:48:18.458Z,75.90
2019-04-29T11:50:55.673Z,75.40
2019-04-29T11:53:25.055Z,75.50
2019-04-29T11:55:57.088Z,75.70
2019-04-29T11:58:43.293Z,75.60
2019-04-29T12:01:17.126Z,75.10
2019-04-29T12:03:55.848Z,74.90
2019-04-29T12:06:23.078Z,75.00
2019-04-29T12:08:54.820Z,74.60
2019-04-29T12:11:28.062Z,74.70
2019-04-29T12:14:03.135Z,74.60
2019-04-29T12:16:35.384Z,74.40
2019-04-29T12:19:08.826Z,74.20
2019-04-29T12:21:39.841Z,73.50
2019-04-29T12:24:09.708Z,73.20
2019-04-29T12:26:44.316Z,73.00
2019-04-29T12:29:13.765Z,72.70
2019-04-29T12:31:59.411Z,72.80
2019-04-29T12:34:33.278Z,72.80
2019-04-29T12:37:03.243Z,72.10
2019-04-29T12:39:49.126Z,72.20
2019-04-29T12:42:28.908Z,71.80
2019-04-29T12:44:59.927Z,71.50
2019-04-29T12:47:33.339Z,71.40
2019-04-29T12:50:02.713Z,71.00
2019-04-29T12:52:32.133Z,70.60
2019-04-29T12:55:18.939Z,71.30
2019-04-29T12:57:32.607Z,70.40
2019-04-29T13:00:02.007Z,70.10
2019-04-29T13:02:33.033Z,70.00
2019-04-29T13:05:04.041Z,69.60
2019-04-29T13:07:35.461Z,70.00
2019-04-29T13:10:27.815Z,69.10
2019-04-29T13:12:58.229Z,69.20
2019-04-29T13:15:29.447Z,68.70
2019-04-29T13:18:23.090Z,68.60
2019-04-29T13:20:50.586Z,68.70
2019-04-29T13:23:30.014Z,68.40
2019-04-29T13:25:50.882Z,68.10
2019-04-29T13:28:29.844Z,67.70
2019-04-29T13:30:56.297Z,67.20
2019-04-29T13:33:22.833Z,67.40
2019-04-29T13:35:52.333Z,67.10
2019-04-29T13:38:21.707Z,67.00
2019-04-29T13:40:51.110Z,66.80
2019-04-29T13:43:20.888Z,66.70
2019-04-29T13:45:55.907Z,66.30
2019-04-29T13:48:55.437Z,66.20
2019-04-29T13:51:33.733Z,66.40
2019-04-29T13:53:46.848Z,65.70
2019-04-29T13:56:32.777Z,65.40
2019-04-29T13:58:47.394Z,64.70
2019-04-29T14:01:33.009Z,64.20
2019-04-29T14:04:05.519Z,64.50
2019-04-29T14:06:36.550Z,63.90
2019-04-29T14:09:08.901Z,63.80
2019-04-29T14:11:38.370Z,63.40
2019-04-29T14:14:07.779Z,63.20
2019-04-29T14:16:37.157Z,62.80
2019-04-29T14:19:08.618Z,62.80
2019-04-29T14:21:37.662Z,62.40
2019-04-29T14:24:07.028Z,62.30
2019-04-29T14:26:36.903Z,62.00
2019-04-29T14:29:08.634Z,61.70
2019-04-29T14:31:38.001Z,60.70
2019-04-29T14:34:21.879Z,60.00
2019-04-29T14:36:51.266Z,59.30
2019-04-29T14:39:36.216Z,59.20
2019-04-29T14:41:55.415Z,58.70
2019-04-29T14:44:31.846Z,58.80
2019-04-29T14:47:14.474Z,58.10
2019-04-29T14:49:47.982Z,57.70
2019-04-29T14:52:17.349Z,57.10
2019-04-29T14:54:46.832Z,57.10
2019-04-29T14:57:16.187Z,57.40
2019-04-29T14:59:45.799Z,56.50
2019-04-29T15:02:19.004Z,55.50
2019-04-29T15:04:48.009Z,55.90
2019-04-29T15:07:17.514Z,55.60
2019-04-29T15:09:57.502Z,55.20
2019-04-29T15:12:52.023Z,55.10
2019-04-29T15:15:21.766Z,55.00
2019-04-29T15:17:58.378Z,55.40
2019-04-29T15:20:35.408Z,55.00
2019-04-29T15:23:05.162Z,56.80
2019-04-29T15:25:34.537Z,54.80
2019-04-29T15:28:04.144Z,54.40
2019-04-29T15:30:36.752Z,54.40
2019-04-29T15:33:05.861Z,54.30
2019-04-29T15:35:35.251Z,53.80
2019-04-29T15:38:04.627Z,53.50
2019-04-29T15:40:42.033Z,52.20
2019-04-29T15:43:05.491Z,52.20
2019-04-29T15:45:34.857Z,51.90
2019-04-29T15:48:04.228Z,51.90
2019-04-29T15:50:37.157Z,51.80
2019-04-29T15:53:04.709Z,51.60
2019-04-29T15:55:34.815Z,51.60
2019-04-29T15:58:05.644Z,51.10
2019-04-29T16:00:37.883Z,50.40
2019-04-29T16:03:06.479Z,50.60
2019-04-29T16:06:19.386Z,49.80
2019-04-29T16:08:29.398Z,49.30
2019-04-29T16:11:05.474Z,48.50
2019-04-29T16:13:34.849Z,47.60
2019-04-29T16:16:04.192Z,47.40
2019-04-29T16:18:33.583Z,47.30
2019-04-29T16:21:02.955Z,47.30
2019-04-29T16:23:38.189Z,45.90
2019-04-29T16:26:04.239Z,45.50
2019-04-29T16:28:39.444Z,45.70
2019-04-29T16:31:11.865Z,46.10
2019-04-29T16:33:36.094Z,46.10
2019-04-29T16:36:06.373Z,46.30
2019-04-29T16:38:35.794Z,46.40
2019-04-29T16:41:20.605Z,45.80
2019-04-29T16:43:53.637Z,45.80
2019-04-29T16:46:35.560Z,45.30
2019-04-29T16:48:55.761Z,44.90
2019-04-29T16:51:25.130Z,44.60
2019-04-29T16:53:54.514Z,44.20
2019-04-29T16:56:24.380Z,43.90
2019-04-29T16:58:53.746Z,44.20
2019-04-29T17:01:23.190Z,42.80
2019-04-29T17:03:52.567Z,43.60
2019-04-29T17:06:22.180Z,42.60
2019-04-29T17:09:03.552Z,42.70
2019-04-29T17:11:38.004Z,42.70
2019-04-29T17:14:10.437Z,41.80
2019-04-29T17:16:41.721Z,42.10
2019-04-29T17:19:11.086Z,41.30
2019-04-29T17:21:40.543Z,41.10
2019-04-29T17:24:09.903Z,41.00
2019-04-29T17:26:40.919Z,40.80
2019-04-29T17:29:38.990Z,40.40
2019-04-29T17:32:01.753Z,40.70
2019-04-29T17:34:58.198Z,40.00
2019-04-29T17:37:07.528Z,40.90
2019-04-29T17:39:36.890Z,40.50
2019-04-29T17:42:06.424Z,40.40
2019-04-29T17:44:40.134Z,40.20
2019-04-29T17:47:14.067Z,40.30
2019-04-29T17:49:48.157Z,40.50
2019-04-29T17:52:21.819Z,40.00
2019-04-29T17:54:52.832Z,39.80
2019-04-29T17:57:29.192Z,39.90
2019-04-29T18:00:00.577Z,40.60
2019-04-29T18:02:35.305Z,39.50
2019-04-29T18:05:08.118Z,39.70
2019-04-29T18:07:45.152Z,39.80
2019-04-29T18:10:17.643Z,39.60
2019-04-29T18:12:46.249Z,40.00
2019-04-29T18:15:20.075Z,40.40
2019-04-29T18:17:48.534Z,40.50
2019-04-29T18:20:32.849Z,40.10
2019-04-29T18:23:19.285Z,40.00
2019-04-29T18:25:54.833Z,39.50
2019-04-29T18:28:24.418Z,39.60
2019-04-29T18:30:57.741Z,39.50
2019-04-29T18:33:30.166Z,39.00
2019-04-29T18:36:03.721Z,38.80
2019-04-29T18:38:28.390Z,39.90
2019-04-29T18:40:57.871Z,39.40
2019-04-29T18:43:27.234Z,39.40
2019-04-29T18:45:58.997Z,39.40
2019-04-29T18:48:27.721Z,39.70
2019-04-29T18:50:57.271Z,40.20
2019-04-29T18:53:26.643Z,40.10
2019-04-29T18:55:56.033Z,40.10
2019-04-29T18:58:25.406Z,40.40
2019-04-29T19:00:56.386Z,40.20
2019-04-29T19:03:39.571Z,40.10
2019-04-29T19:06:10.367Z,40.10
2019-04-29T19:08:40.028Z,40.40
2019-04-29T19:11:09.406Z,40.00
2019-04-29T19:13:38.916Z,40.10
2019-04-29T19:16:10.357Z,40.30
2019-04-29T19:18:39.430Z,40.70
2019-04-29T19:21:08.804Z,40.90
2019-04-29T19:23:38.170Z,41.00
2019-04-29T19:26:07.655Z,41.10
2019-04-29T19:28:37.117Z,40.90
2019-04-29T19:31:09.488Z,41.10
2019-04-29T19:33:39.359Z,40.80
2019-04-29T19:36:17.094Z,41.70
2019-04-29T19:38:43.340Z,41.50
2019-04-29T19:41:16.352Z,41.90
2019-04-29T19:43:42.970Z,41.70
2019-04-29T19:46:22.583Z,41.80
2019-04-29T19:48:45.126Z,41.90
2019-04-29T19:51:18.086Z,42.30
2019-04-29T19:53:49.393Z,42.20
2019-04-29T19:56:23.214Z,42.20
2019-04-29T19:58:48.458Z,42.40
2019-04-29T20:01:26.419Z,42.40
2019-04-29T20:03:56.941Z,42.90
2019-04-29T20:06:29.503Z,42.70
2019-04-29T20:09:00.793Z,42.90
2019-04-29T20:11:32.582Z,42.90
2019-04-29T20:14:04.855Z,43.20
2019-04-29T20:16:56.376Z,43.20
2019-04-29T20:19:36.109Z,43.50
2019-04-29T20:22:09.330Z,43.40
2019-04-29T20:24:37.422Z,43.70
2019-04-29T20:27:07.760Z,44.00
2019-04-29T20:29:38.880Z,44.10
2019-04-29T20:32:08.758Z,44.20
2019-04-29T20:34:38.433Z,44.50
2019-04-29T20:37:10.818Z,44.60
2019-04-29T20:39:40.109Z,44.70
2019-04-29T20:42:10.591Z,44.40
2019-04-29T20:44:44.729Z,44.90
2019-04-29T20:47:22.714Z,45.10
2019-04-29T20:49:43.230Z,44.70
2019-04-29T20:52:20.240Z,45.20
2019-04-29T20:54:52.635Z,45.30
2019-04-29T20:57:20.407Z,45.60
2019-04-29T20:59:50.399Z,45.50
2019-04-29T21:02:30.172Z,45.70
2019-04-29T21:04:50.458Z,45.40
2019-04-29T21:07:23.604Z,45.50
2019-04-29T21:09:51.055Z,45.60
2019-04-29T21:12:22.070Z,46.10
2019-04-29T21:15:07.403Z,46.20
2019-04-29T21:17:40.248Z,46.40
2019-04-29T21:20:07.511Z,46.50
2019-04-29T21:22:36.906Z,46.60
2019-04-29T21:25:08.388Z,46.80
2019-04-29T21:27:37.754Z,46.90
2019-04-29T21:30:09.360Z,47.00
2019-04-29T21:32:39.141Z,47.20
2019-04-29T21:35:18.526Z,47.20
2019-04-29T21:38:05.289Z,47.50
2019-04-29T21:40:52.415Z,47.60
2019-04-29T21:43:25.955Z,47.70
2019-04-29T21:45:55.628Z,47.90
2019-04-29T21:48:33.455Z,47.90
2019-04-29T21:50:56.611Z,48.10
2019-04-29T21:53:25.982Z,48.20
2019-04-29T21:55:55.507Z,48.40
2019-04-29T21:58:28.665Z,48.60
2019-04-29T22:00:59.289Z,48.70
2019-04-29T22:03:29.152Z,49.10
2019-04-29T22:06:00.363Z,49.00
2019-04-29T22:08:30.007Z,49.10
2019-04-29T22:11:04.786Z,49.20
2019-04-29T22:13:34.896Z,49.40
2019-04-29T22:16:01.980Z,49.50
2019-04-29T22:18:31.978Z,49.60
2019-04-29T22:21:01.360Z,49.90
2019-04-29T22:23:30.733Z,49.90
2019-04-29T22:26:00.124Z,50.00
2019-04-29T22:28:29.487Z,50.30
2019-04-29T22:30:58.861Z,50.30
2019-04-29T22:36:05.435Z,50.30
2019-04-29T22:38:36.024Z,50.90
2019-04-29T22:41:11.901Z,51.00
2019-04-29T22:43:52.210Z,51.10
2019-04-29T22:46:21.575Z,51.80
2019-04-29T22:48:50.940Z,51.40
2019-04-29T22:51:20.507Z,51.40
2019-04-29T22:53:49.874Z,51.60
2019-04-29T22:56:19.242Z,51.70
2019-04-29T22:58:48.638Z,52.00
2019-04-29T23:01:18.010Z,52.10
2019-04-29T23:03:47.416Z,52.20
2019-04-29T23:06:16.849Z,52.30
2019-04-29T23:08:46.240Z,52.40
2019-04-29T23:11:15.698Z,52.80
2019-04-29T23:13:46.144Z,52.90
2019-04-29T23:16:16.218Z,53.00
2019-04-29T23:18:45.903Z,53.20
2019-04-29T23:21:17.211Z,53.40
2019-04-29T23:23:50.929Z,53.50
2019-04-29T23:26:20.290Z,53.60
2019-04-29T23:28:49.698Z,53.80
2019-04-29T23:31:22.629Z,53.80
2019-04-29T23:33:53.182Z,54.10
2019-04-29T23:36:21.264Z,54.20
2019-04-29T23:38:50.638Z,54.40
2019-04-29T23:41:20.594Z,54.40
2019-04-29T23:43:50.397Z,54.50
2019-04-29T23:46:20.013Z,54.80
2019-04-29T23:48:49.392Z,55.40
2019-04-29T23:51:18.798Z,55.10
2019-04-29T23:53:48.169Z,55.10
2019-04-29T23:56:19.183Z,55.20
2019-04-29T23:58:58.814Z,55.10
